sensor_id;sensor_type;location;lat;lon;timestamp;P1;durP1;ratioP1;P2;durP2;ratioP2
45356;SDS011;31092;51.924;21.448;2022-10-16T00:00:29;10.63;;;6.35;;
45356;SDS011;31092;51.924;21.448;2022-10-16T00:02:55;9.50;;;5.30;;
45356;SDS011;31092;51.924;21.448;2022-10-16T00:05:20;11.75;;;5.30;;
45356;SDS011;31092;51.924;21.448;2022-10-16T00:07:46;20.55;;;6.30;;
45356;SDS011;31092;51.924;21.448;2022-10-16T00:10:11;13.35;;;7.32;;
45356;SDS011;31092;51.924;21.448;2022-10-16T00:12:37;9.25;;;5.63;;
45356;SDS011;31092;51.924;21.448;2022-10-16T00:15:02;14.45;;;6.05;;
45356;SDS011;31092;51.924;21.448;2022-10-16T00:17:29;12.00;;;6.32;;
45356;SDS011;31092;51.924;21.448;2022-10-16T00:19:54;10.40;;;6.10;;
45356;SDS011;31092;51.924;21.448;2022-10-16T00:22:20;13.30;;;6.00;;
45356;SDS011;31092;51.924;21.448;2022-10-16T00:24:45;12.18;;;5.88;;
45356;SDS011;31092;51.924;21.448;2022-10-16T00:27:11;11.57;;;6.18;;
45356;SDS011;31092;51.924;21.448;2022-10-16T00:29:36;10.60;;;5.82;;
45356;SDS011;31092;51.924;21.448;2022-10-16T00:32:02;7.47;;;4.93;;
45356;SDS011;31092;51.924;21.448;2022-10-16T00:34:27;13.02;;;5.85;;
45356;SDS011;31092;51.924;21.448;2022-10-16T00:36:53;11.75;;;5.93;;
45356;SDS011;31092;51.924;21.448;2022-10-16T00:39:19;8.45;;;4.72;;
45356;SDS011;31092;51.924;21.448;2022-10-16T00:41:44;8.82;;;4.75;;
45356;SDS011;31092;51.924;21.448;2022-10-16T00:47:15;9.85;;;5.50;;
45356;SDS011;31092;51.924;21.448;2022-10-16T00:49:46;12.27;;;6.10;;
45356;SDS011;31092;51.924;21.448;2022-10-16T00:52:13;11.20;;;6.57;;
45356;SDS011;31092;51.924;21.448;2022-10-16T00:54:39;9.35;;;6.03;;
45356;SDS011;31092;51.924;21.448;2022-10-16T00:57:06;6.82;;;5.30;;
45356;SDS011;31092;51.924;21.448;2022-10-16T00:59:36;10.50;;;5.68;;
45356;SDS011;31092;51.924;21.448;2022-10-16T01:02:04;5.85;;;5.25;;
45356;SDS011;31092;51.924;21.448;2022-10-16T01:04:37;6.05;;;4.90;;
45356;SDS011;31092;51.924;21.448;2022-10-16T01:12:31;11.48;;;5.40;;
45356;SDS011;31092;51.924;21.448;2022-10-16T01:15:08;9.52;;;5.18;;
45356;SDS011;31092;51.924;21.448;2022-10-16T01:17:47;9.85;;;5.28;;
45356;SDS011;31092;51.924;21.448;2022-10-16T01:20:24;11.85;;;5.53;;
45356;SDS011;31092;51.924;21.448;2022-10-16T01:28:28;11.15;;;5.35;;
45356;SDS011;31092;51.924;21.448;2022-10-16T01:31:01;13.52;;;5.65;;
45356;SDS011;31092;51.924;21.448;2022-10-16T01:33:29;6.95;;;4.20;;
45356;SDS011;31092;51.924;21.448;2022-10-16T01:36:05;11.43;;;5.15;;
45356;SDS011;31092;51.924;21.448;2022-10-16T01:38:37;10.30;;;5.53;;
45356;SDS011;31092;51.924;21.448;2022-10-16T01:41:38;9.13;;;4.57;;
45356;SDS011;31092;51.924;21.448;2022-10-16T01:44:03;10.93;;;6.05;;
45356;SDS011;31092;51.924;21.448;2022-10-16T01:46:33;7.22;;;4.90;;
45356;SDS011;31092;51.924;21.448;2022-10-16T01:49:02;9.48;;;5.45;;
45356;SDS011;31092;51.924;21.448;2022-10-16T01:51:30;12.00;;;6.18;;
45356;SDS011;31092;51.924;21.448;2022-10-16T01:53:57;10.90;;;4.53;;
45356;SDS011;31092;51.924;21.448;2022-10-16T01:56:26;10.40;;;5.13;;
45356;SDS011;31092;51.924;21.448;2022-10-16T01:58:55;9.73;;;5.65;;
45356;SDS011;31092;51.924;21.448;2022-10-16T02:01:26;9.98;;;4.70;;
45356;SDS011;31092;51.924;21.448;2022-10-16T02:06:24;5.72;;;3.92;;
45356;SDS011;31092;51.924;21.448;2022-10-16T02:08:50;8.82;;;4.68;;
45356;SDS011;31092;51.924;21.448;2022-10-16T02:11:16;8.05;;;4.65;;
45356;SDS011;31092;51.924;21.448;2022-10-16T02:13:43;11.50;;;5.45;;
45356;SDS011;31092;51.924;21.448;2022-10-16T02:16:13;12.13;;;5.07;;
45356;SDS011;31092;51.924;21.448;2022-10-16T02:18:39;9.48;;;4.78;;
45356;SDS011;31092;51.924;21.448;2022-10-16T02:21:22;10.20;;;5.13;;
45356;SDS011;31092;51.924;21.448;2022-10-16T02:26:30;14.10;;;5.03;;
45356;SDS011;31092;51.924;21.448;2022-10-16T02:29:05;8.02;;;5.65;;
45356;SDS011;31092;51.924;21.448;2022-10-16T02:31:35;8.75;;;5.15;;
45356;SDS011;31092;51.924;21.448;2022-10-16T02:34:06;12.98;;;5.07;;
45356;SDS011;31092;51.924;21.448;2022-10-16T02:36:33;10.15;;;5.53;;
45356;SDS011;31092;51.924;21.448;2022-10-16T02:39:01;9.00;;;5.05;;
45356;SDS011;31092;51.924;21.448;2022-10-16T02:41:28;8.52;;;4.90;;
45356;SDS011;31092;51.924;21.448;2022-10-16T02:43:55;5.70;;;4.18;;
45356;SDS011;31092;51.924;21.448;2022-10-16T02:46:21;7.75;;;4.65;;
45356;SDS011;31092;51.924;21.448;2022-10-16T02:48:46;9.13;;;4.82;;
45356;SDS011;31092;51.924;21.448;2022-10-16T02:51:12;7.30;;;4.82;;
45356;SDS011;31092;51.924;21.448;2022-10-16T02:53:37;7.93;;;4.43;;
45356;SDS011;31092;51.924;21.448;2022-10-16T02:56:03;10.93;;;5.00;;
45356;SDS011;31092;51.924;21.448;2022-10-16T02:58:29;12.18;;;5.82;;
45356;SDS011;31092;51.924;21.448;2022-10-16T03:00:54;12.10;;;4.63;;
45356;SDS011;31092;51.924;21.448;2022-10-16T03:03:20;15.15;;;5.40;;
45356;SDS011;31092;51.924;21.448;2022-10-16T03:05:46;6.10;;;3.65;;
45356;SDS011;31092;51.924;21.448;2022-10-16T03:08:12;9.00;;;4.85;;
45356;SDS011;31092;51.924;21.448;2022-10-16T03:10:38;7.47;;;4.35;;
45356;SDS011;31092;51.924;21.448;2022-10-16T03:13:03;7.55;;;4.78;;
45356;SDS011;31092;51.924;21.448;2022-10-16T03:15:29;9.68;;;4.35;;
45356;SDS011;31092;51.924;21.448;2022-10-16T03:17:57;9.68;;;4.90;;
45356;SDS011;31092;51.924;21.448;2022-10-16T03:20:23;7.47;;;4.53;;
45356;SDS011;31092;51.924;21.448;2022-10-16T03:22:49;5.50;;;4.07;;
45356;SDS011;31092;51.924;21.448;2022-10-16T03:25:15;7.18;;;4.80;;
45356;SDS011;31092;51.924;21.448;2022-10-16T03:27:41;7.35;;;4.57;;
45356;SDS011;31092;51.924;21.448;2022-10-16T03:30:06;11.15;;;4.63;;
45356;SDS011;31092;51.924;21.448;2022-10-16T03:32:33;7.72;;;4.40;;
45356;SDS011;31092;51.924;21.448;2022-10-16T03:34:58;6.05;;;4.72;;
45356;SDS011;31092;51.924;21.448;2022-10-16T03:37:24;8.93;;;4.80;;
45356;SDS011;31092;51.924;21.448;2022-10-16T03:39:50;9.10;;;4.97;;
45356;SDS011;31092;51.924;21.448;2022-10-16T03:42:15;6.38;;;4.30;;
45356;SDS011;31092;51.924;21.448;2022-10-16T03:44:41;8.30;;;4.03;;
45356;SDS011;31092;51.924;21.448;2022-10-16T03:47:07;11.27;;;4.80;;
45356;SDS011;31092;51.924;21.448;2022-10-16T03:49:33;11.10;;;4.38;;
45356;SDS011;31092;51.924;21.448;2022-10-16T03:51:58;11.75;;;5.50;;
45356;SDS011;31092;51.924;21.448;2022-10-16T03:54:24;9.13;;;5.95;;
45356;SDS011;31092;51.924;21.448;2022-10-16T03:56:49;5.63;;;4.50;;
45356;SDS011;31092;51.924;21.448;2022-10-16T03:59:24;11.02;;;4.90;;
45356;SDS011;31092;51.924;21.448;2022-10-16T04:01:50;9.57;;;4.55;;
45356;SDS011;31092;51.924;21.448;2022-10-16T04:04:15;8.00;;;4.97;;
45356;SDS011;31092;51.924;21.448;2022-10-16T04:06:41;7.07;;;4.68;;
45356;SDS011;31092;51.924;21.448;2022-10-16T04:09:06;8.02;;;4.28;;
45356;SDS011;31092;51.924;21.448;2022-10-16T04:11:32;5.82;;;4.13;;
45356;SDS011;31092;51.924;21.448;2022-10-16T04:13:58;7.13;;;4.05;;
45356;SDS011;31092;51.924;21.448;2022-10-16T04:16:23;9.43;;;4.22;;
45356;SDS011;31092;51.924;21.448;2022-10-16T04:18:49;7.30;;;5.30;;
45356;SDS011;31092;51.924;21.448;2022-10-16T04:21:14;9.02;;;5.05;;
45356;SDS011;31092;51.924;21.448;2022-10-16T04:23:40;9.23;;;5.32;;
45356;SDS011;31092;51.924;21.448;2022-10-16T04:26:07;8.02;;;5.50;;
45356;SDS011;31092;51.924;21.448;2022-10-16T04:28:32;4.82;;;3.55;;
45356;SDS011;31092;51.924;21.448;2022-10-16T04:30:58;6.15;;;4.40;;
45356;SDS011;31092;51.924;21.448;2022-10-16T04:33:24;7.50;;;4.85;;
45356;SDS011;31092;51.924;21.448;2022-10-16T04:35:55;6.00;;;4.43;;
45356;SDS011;31092;51.924;21.448;2022-10-16T04:38:22;7.07;;;4.38;;
45356;SDS011;31092;51.924;21.448;2022-10-16T04:40:48;6.75;;;4.55;;
45356;SDS011;31092;51.924;21.448;2022-10-16T04:43:13;8.57;;;5.05;;
45356;SDS011;31092;51.924;21.448;2022-10-16T04:45:39;6.55;;;4.28;;
45356;SDS011;31092;51.924;21.448;2022-10-16T04:48:04;8.85;;;4.75;;
45356;SDS011;31092;51.924;21.448;2022-10-16T04:50:30;4.90;;;4.15;;
45356;SDS011;31092;51.924;21.448;2022-10-16T04:52:55;17.83;;;5.13;;
45356;SDS011;31092;51.924;21.448;2022-10-16T04:55:21;10.05;;;5.25;;
45356;SDS011;31092;51.924;21.448;2022-10-16T04:57:47;7.97;;;4.45;;
45356;SDS011;31092;51.924;21.448;2022-10-16T05:00:12;13.02;;;5.40;;
45356;SDS011;31092;51.924;21.448;2022-10-16T05:02:38;9.15;;;4.38;;
45356;SDS011;31092;51.924;21.448;2022-10-16T05:05:04;8.85;;;5.43;;
45356;SDS011;31092;51.924;21.448;2022-10-16T05:07:32;7.70;;;4.30;;
45356;SDS011;31092;51.924;21.448;2022-10-16T05:09:57;9.50;;;4.05;;
45356;SDS011;31092;51.924;21.448;2022-10-16T05:12:23;7.78;;;3.92;;
45356;SDS011;31092;51.924;21.448;2022-10-16T05:14:48;8.48;;;4.72;;
45356;SDS011;31092;51.924;21.448;2022-10-16T05:17:14;21.23;;;4.57;;
45356;SDS011;31092;51.924;21.448;2022-10-16T05:19:40;7.47;;;4.80;;
45356;SDS011;31092;51.924;21.448;2022-10-16T05:22:05;7.38;;;4.82;;
45356;SDS011;31092;51.924;21.448;2022-10-16T05:24:31;9.93;;;5.30;;
45356;SDS011;31092;51.924;21.448;2022-10-16T05:26:56;6.22;;;4.38;;
45356;SDS011;31092;51.924;21.448;2022-10-16T05:29:31;9.90;;;4.50;;
45356;SDS011;31092;51.924;21.448;2022-10-16T05:31:57;12.13;;;5.40;;
45356;SDS011;31092;51.924;21.448;2022-10-16T05:34:22;4.63;;;3.80;;
45356;SDS011;31092;51.924;21.448;2022-10-16T05:36:48;9.43;;;6.32;;
45356;SDS011;31092;51.924;21.448;2022-10-16T05:39:14;5.88;;;3.60;;
45356;SDS011;31092;51.924;21.448;2022-10-16T05:41:40;6.80;;;3.50;;
45356;SDS011;31092;51.924;21.448;2022-10-16T05:44:06;11.43;;;4.22;;
45356;SDS011;31092;51.924;21.448;2022-10-16T05:46:32;5.57;;;4.00;;
45356;SDS011;31092;51.924;21.448;2022-10-16T05:48:58;11.93;;;5.00;;
45356;SDS011;31092;51.924;21.448;2022-10-16T05:51:24;7.93;;;4.72;;
45356;SDS011;31092;51.924;21.448;2022-10-16T05:53:50;9.98;;;4.60;;
45356;SDS011;31092;51.924;21.448;2022-10-16T05:56:17;6.95;;;4.40;;
45356;SDS011;31092;51.924;21.448;2022-10-16T05:58:42;7.13;;;3.70;;
45356;SDS011;31092;51.924;21.448;2022-10-16T06:01:13;5.38;;;4.20;;
45356;SDS011;31092;51.924;21.448;2022-10-16T06:03:40;8.65;;;5.10;;
45356;SDS011;31092;51.924;21.448;2022-10-16T06:06:15;6.80;;;3.45;;
45356;SDS011;31092;51.924;21.448;2022-10-16T06:08:42;6.30;;;3.95;;
45356;SDS011;31092;51.924;21.448;2022-10-16T06:11:11;8.38;;;4.68;;
45356;SDS011;31092;51.924;21.448;2022-10-16T06:13:39;8.77;;;4.57;;
45356;SDS011;31092;51.924;21.448;2022-10-16T06:16:07;7.10;;;4.25;;
45356;SDS011;31092;51.924;21.448;2022-10-16T06:18:35;7.93;;;4.90;;
45356;SDS011;31092;51.924;21.448;2022-10-16T06:21:06;8.05;;;4.38;;
45356;SDS011;31092;51.924;21.448;2022-10-16T06:23:34;6.70;;;4.82;;
45356;SDS011;31092;51.924;21.448;2022-10-16T06:26:10;7.50;;;3.70;;
45356;SDS011;31092;51.924;21.448;2022-10-16T06:28:36;7.15;;;3.58;;
45356;SDS011;31092;51.924;21.448;2022-10-16T06:31:05;9.48;;;3.75;;
45356;SDS011;31092;51.924;21.448;2022-10-16T06:33:36;9.43;;;4.43;;
45356;SDS011;31092;51.924;21.448;2022-10-16T06:36:03;6.10;;;4.28;;
45356;SDS011;31092;51.924;21.448;2022-10-16T06:38:31;6.03;;;4.35;;
45356;SDS011;31092;51.924;21.448;2022-10-16T06:40:57;9.02;;;4.53;;
45356;SDS011;31092;51.924;21.448;2022-10-16T06:43:23;8.40;;;4.68;;
45356;SDS011;31092;51.924;21.448;2022-10-16T06:45:56;7.03;;;3.67;;
45356;SDS011;31092;51.924;21.448;2022-10-16T06:48:22;8.15;;;4.28;;
45356;SDS011;31092;51.924;21.448;2022-10-16T06:51:02;7.90;;;4.28;;
45356;SDS011;31092;51.924;21.448;2022-10-16T06:53:29;8.43;;;4.60;;
45356;SDS011;31092;51.924;21.448;2022-10-16T06:55:57;7.88;;;3.75;;
45356;SDS011;31092;51.924;21.448;2022-10-16T06:58:22;7.10;;;4.72;;
45356;SDS011;31092;51.924;21.448;2022-10-16T07:00:55;6.55;;;4.05;;
45356;SDS011;31092;51.924;21.448;2022-10-16T07:03:22;9.48;;;4.78;;
45356;SDS011;31092;51.924;21.448;2022-10-16T07:05:53;8.30;;;5.47;;
45356;SDS011;31092;51.924;21.448;2022-10-16T07:08:19;7.43;;;4.00;;
45356;SDS011;31092;51.924;21.448;2022-10-16T07:10:45;5.78;;;4.28;;
45356;SDS011;31092;51.924;21.448;2022-10-16T07:13:10;11.30;;;4.75;;
45356;SDS011;31092;51.924;21.448;2022-10-16T07:15:38;7.32;;;4.50;;
45356;SDS011;31092;51.924;21.448;2022-10-16T07:18:04;7.88;;;4.65;;
45356;SDS011;31092;51.924;21.448;2022-10-16T07:20:30;8.18;;;5.10;;
45356;SDS011;31092;51.924;21.448;2022-10-16T07:22:56;8.27;;;4.95;;
45356;SDS011;31092;51.924;21.448;2022-10-16T07:25:21;8.50;;;4.85;;
45356;SDS011;31092;51.924;21.448;2022-10-16T07:27:50;4.82;;;3.47;;
45356;SDS011;31092;51.924;21.448;2022-10-16T07:30:15;6.70;;;4.00;;
45356;SDS011;31092;51.924;21.448;2022-10-16T07:32:41;5.53;;;3.13;;
45356;SDS011;31092;51.924;21.448;2022-10-16T07:35:22;5.00;;;3.47;;
45356;SDS011;31092;51.924;21.448;2022-10-16T07:37:47;6.57;;;4.15;;
45356;SDS011;31092;51.924;21.448;2022-10-16T07:40:13;8.50;;;3.75;;
45356;SDS011;31092;51.924;21.448;2022-10-16T07:42:39;6.85;;;4.50;;
45356;SDS011;31092;51.924;21.448;2022-10-16T07:48:17;5.97;;;3.65;;
45356;SDS011;31092;51.924;21.448;2022-10-16T07:53:25;6.30;;;3.78;;
45356;SDS011;31092;51.924;21.448;2022-10-16T07:55:52;6.10;;;3.80;;
45356;SDS011;31092;51.924;21.448;2022-10-16T07:58:17;6.65;;;3.97;;
45356;SDS011;31092;51.924;21.448;2022-10-16T08:00:43;6.13;;;4.07;;
45356;SDS011;31092;51.924;21.448;2022-10-16T08:03:42;5.45;;;3.65;;
45356;SDS011;31092;51.924;21.448;2022-10-16T08:06:24;6.40;;;3.72;;
45356;SDS011;31092;51.924;21.448;2022-10-16T08:08:50;7.28;;;4.13;;
45356;SDS011;31092;51.924;21.448;2022-10-16T08:11:42;5.60;;;3.17;;
45356;SDS011;31092;51.924;21.448;2022-10-16T08:14:28;5.53;;;3.65;;
45356;SDS011;31092;51.924;21.448;2022-10-16T08:16:56;5.38;;;3.78;;
45356;SDS011;31092;51.924;21.448;2022-10-16T08:25:41;5.75;;;4.35;;
45356;SDS011;31092;51.924;21.448;2022-10-16T08:28:08;4.60;;;3.47;;
45356;SDS011;31092;51.924;21.448;2022-10-16T08:30:35;7.70;;;4.00;;
45356;SDS011;31092;51.924;21.448;2022-10-16T08:33:00;4.28;;;3.65;;
45356;SDS011;31092;51.924;21.448;2022-10-16T08:35:26;5.30;;;4.13;;
45356;SDS011;31092;51.924;21.448;2022-10-16T08:37:52;6.57;;;4.65;;
45356;SDS011;31092;51.924;21.448;2022-10-16T08:40:22;6.05;;;3.92;;
45356;SDS011;31092;51.924;21.448;2022-10-16T08:51:12;5.95;;;3.78;;
45356;SDS011;31092;51.924;21.448;2022-10-16T08:53:45;4.57;;;3.42;;
45356;SDS011;31092;51.924;21.448;2022-10-16T08:58:41;4.53;;;4.00;;
45356;SDS011;31092;51.924;21.448;2022-10-16T09:01:13;4.43;;;3.33;;
45356;SDS011;31092;51.924;21.448;2022-10-16T09:15:37;4.88;;;3.67;;
45356;SDS011;31092;51.924;21.448;2022-10-16T09:18:10;6.65;;;4.28;;
45356;SDS011;31092;51.924;21.448;2022-10-16T09:23:29;5.35;;;4.03;;
45356;SDS011;31092;51.924;21.448;2022-10-16T09:25:56;5.90;;;3.35;;
45356;SDS011;31092;51.924;21.448;2022-10-16T09:28:24;4.88;;;3.28;;
45356;SDS011;31092;51.924;21.448;2022-10-16T09:30:51;6.20;;;3.15;;
45356;SDS011;31092;51.924;21.448;2022-10-16T09:33:20;5.40;;;3.28;;
45356;SDS011;31092;51.924;21.448;2022-10-16T09:35:50;3.80;;;3.03;;
45356;SDS011;31092;51.924;21.448;2022-10-16T09:41:00;7.18;;;3.17;;
45356;SDS011;31092;51.924;21.448;2022-10-16T09:43:41;4.22;;;3.28;;
45356;SDS011;31092;51.924;21.448;2022-10-16T09:49:16;4.50;;;3.03;;
45356;SDS011;31092;51.924;21.448;2022-10-16T09:51:48;3.90;;;3.28;;
45356;SDS011;31092;51.924;21.448;2022-10-16T09:54:18;5.88;;;3.80;;
45356;SDS011;31092;51.924;21.448;2022-10-16T09:56:45;9.38;;;3.60;;
45356;SDS011;31092;51.924;21.448;2022-10-16T09:59:20;7.60;;;3.15;;
45356;SDS011;31092;51.924;21.448;2022-10-16T10:01:55;6.60;;;3.67;;
45356;SDS011;31092;51.924;21.448;2022-10-16T10:04:21;4.22;;;3.28;;
45356;SDS011;31092;51.924;21.448;2022-10-16T10:06:49;5.00;;;3.47;;
45356;SDS011;31092;51.924;21.448;2022-10-16T10:11:58;5.78;;;4.30;;
45356;SDS011;31092;51.924;21.448;2022-10-16T10:14:38;6.93;;;3.65;;
45356;SDS011;31092;51.924;21.448;2022-10-16T10:24:57;4.40;;;3.40;;
45356;SDS011;31092;51.924;21.448;2022-10-16T10:35:32;3.67;;;3.10;;
45356;SDS011;31092;51.924;21.448;2022-10-16T10:38:40;4.45;;;3.10;;
45356;SDS011;31092;51.924;21.448;2022-10-16T10:41:21;4.97;;;4.07;;
45356;SDS011;31092;51.924;21.448;2022-10-16T10:49:53;4.72;;;3.47;;
45356;SDS011;31092;51.924;21.448;2022-10-16T10:52:41;5.45;;;3.28;;
45356;SDS011;31092;51.924;21.448;2022-10-16T10:58:12;3.92;;;3.22;;
45356;SDS011;31092;51.924;21.448;2022-10-16T11:06:57;3.47;;;2.97;;
45356;SDS011;31092;51.924;21.448;2022-10-16T11:09:31;5.15;;;3.03;;
45356;SDS011;31092;51.924;21.448;2022-10-16T11:12:06;5.50;;;3.45;;
45356;SDS011;31092;51.924;21.448;2022-10-16T11:18:00;4.75;;;3.38;;
45356;SDS011;31092;51.924;21.448;2022-10-16T11:20:37;4.78;;;3.33;;
45356;SDS011;31092;51.924;21.448;2022-10-16T11:23:21;5.65;;;3.38;;
45356;SDS011;31092;51.924;21.448;2022-10-16T11:26:05;4.28;;;3.50;;
45356;SDS011;31092;51.924;21.448;2022-10-16T11:28:56;7.47;;;4.10;;
45356;SDS011;31092;51.924;21.448;2022-10-16T11:34:12;6.35;;;4.55;;
45356;SDS011;31092;51.924;21.448;2022-10-16T11:37:10;4.05;;;3.47;;
45356;SDS011;31092;51.924;21.448;2022-10-16T11:39:39;3.17;;;2.88;;
45356;SDS011;31092;51.924;21.448;2022-10-16T11:42:11;4.50;;;3.40;;
45356;SDS011;31092;51.924;21.448;2022-10-16T11:44:59;3.97;;;3.42;;
45356;SDS011;31092;51.924;21.448;2022-10-16T11:50:18;5.35;;;4.07;;
45356;SDS011;31092;51.924;21.448;2022-10-16T11:52:51;5.60;;;3.38;;
45356;SDS011;31092;51.924;21.448;2022-10-16T11:55:36;4.30;;;2.63;;
45356;SDS011;31092;51.924;21.448;2022-10-16T11:58:05;3.65;;;3.17;;
45356;SDS011;31092;51.924;21.448;2022-10-16T12:00:50;4.03;;;2.88;;
45356;SDS011;31092;51.924;21.448;2022-10-16T12:03:25;5.70;;;3.30;;
45356;SDS011;31092;51.924;21.448;2022-10-16T12:06:17;4.43;;;3.13;;
45356;SDS011;31092;51.924;21.448;2022-10-16T12:08:57;3.80;;;2.85;;
45356;SDS011;31092;51.924;21.448;2022-10-16T12:16:58;3.63;;;3.17;;
45356;SDS011;31092;51.924;21.448;2022-10-16T12:19:29;3.55;;;2.92;;
45356;SDS011;31092;51.924;21.448;2022-10-16T12:21:57;3.23;;;2.40;;
45356;SDS011;31092;51.924;21.448;2022-10-16T12:27:06;4.57;;;2.92;;
45356;SDS011;31092;51.924;21.448;2022-10-16T12:29:47;3.42;;;2.03;;
45356;SDS011;31092;51.924;21.448;2022-10-16T12:32:22;4.00;;;2.83;;
45356;SDS011;31092;51.924;21.448;2022-10-16T12:34:54;4.72;;;3.40;;
45356;SDS011;31092;51.924;21.448;2022-10-16T12:37:21;3.10;;;2.80;;
45356;SDS011;31092;51.924;21.448;2022-10-16T12:39:51;2.42;;;2.22;;
45356;SDS011;31092;51.924;21.448;2022-10-16T12:42:30;4.07;;;3.45;;
45356;SDS011;31092;51.924;21.448;2022-10-16T12:44:58;2.88;;;2.60;;
45356;SDS011;31092;51.924;21.448;2022-10-16T12:49:56;2.15;;;1.88;;
45356;SDS011;31092;51.924;21.448;2022-10-16T12:55:02;3.40;;;3.10;;
45356;SDS011;31092;51.924;21.448;2022-10-16T13:08:23;5.55;;;3.08;;
45356;SDS011;31092;51.924;21.448;2022-10-16T13:23:02;4.03;;;3.58;;
45356;SDS011;31092;51.924;21.448;2022-10-16T13:28:15;6.50;;;4.18;;
45356;SDS011;31092;51.924;21.448;2022-10-16T13:30:53;3.72;;;2.63;;
45356;SDS011;31092;51.924;21.448;2022-10-16T13:36:01;3.72;;;2.40;;
45356;SDS011;31092;51.924;21.448;2022-10-16T13:38:30;2.72;;;2.08;;
45356;SDS011;31092;51.924;21.448;2022-10-16T13:43:31;4.32;;;2.58;;
45356;SDS011;31092;51.924;21.448;2022-10-16T13:46:02;3.72;;;2.53;;
45356;SDS011;31092;51.924;21.448;2022-10-16T13:49:00;3.63;;;2.65;;
45356;SDS011;31092;51.924;21.448;2022-10-16T13:51:30;3.10;;;2.22;;
45356;SDS011;31092;51.924;21.448;2022-10-16T13:53:57;2.38;;;1.90;;
45356;SDS011;31092;51.924;21.448;2022-10-16T13:56:30;3.45;;;2.60;;
45356;SDS011;31092;51.924;21.448;2022-10-16T13:59:04;2.33;;;2.10;;
45356;SDS011;31092;51.924;21.448;2022-10-16T14:01:31;4.18;;;2.40;;
45356;SDS011;31092;51.924;21.448;2022-10-16T14:04:07;2.42;;;2.08;;
45356;SDS011;31092;51.924;21.448;2022-10-16T14:06:34;2.70;;;2.35;;
45356;SDS011;31092;51.924;21.448;2022-10-16T14:09:05;2.15;;;1.92;;
45356;SDS011;31092;51.924;21.448;2022-10-16T14:11:35;3.30;;;2.50;;
45356;SDS011;31092;51.924;21.448;2022-10-16T14:14:35;2.58;;;2.13;;
45356;SDS011;31092;51.924;21.448;2022-10-16T14:17:13;3.50;;;2.47;;
45356;SDS011;31092;51.924;21.448;2022-10-16T14:19:47;3.80;;;2.55;;
45356;SDS011;31092;51.924;21.448;2022-10-16T14:24:56;3.08;;;2.03;;
45356;SDS011;31092;51.924;21.448;2022-10-16T14:27:29;2.65;;;2.10;;
45356;SDS011;31092;51.924;21.448;2022-10-16T14:30:16;3.47;;;2.28;;
45356;SDS011;31092;51.924;21.448;2022-10-16T14:36:05;3.47;;;2.70;;
45356;SDS011;31092;51.924;21.448;2022-10-16T14:38:40;4.35;;;2.72;;
45356;SDS011;31092;51.924;21.448;2022-10-16T14:41:08;2.75;;;2.08;;
45356;SDS011;31092;51.924;21.448;2022-10-16T14:43:38;2.88;;;2.45;;
45356;SDS011;31092;51.924;21.448;2022-10-16T14:46:09;4.43;;;2.60;;
45356;SDS011;31092;51.924;21.448;2022-10-16T14:48:39;2.75;;;2.35;;
45356;SDS011;31092;51.924;21.448;2022-10-16T14:51:18;4.40;;;2.38;;
45356;SDS011;31092;51.924;21.448;2022-10-16T14:53:45;6.15;;;2.70;;
45356;SDS011;31092;51.924;21.448;2022-10-16T14:56:16;8.10;;;2.55;;
45356;SDS011;31092;51.924;21.448;2022-10-16T14:59:10;5.25;;;2.50;;
45356;SDS011;31092;51.924;21.448;2022-10-16T15:01:42;2.88;;;1.85;;
45356;SDS011;31092;51.924;21.448;2022-10-16T15:04:09;3.47;;;2.25;;
45356;SDS011;31092;51.924;21.448;2022-10-16T15:06:40;3.63;;;2.75;;
45356;SDS011;31092;51.924;21.448;2022-10-16T15:09:06;4.03;;;2.83;;
45356;SDS011;31092;51.924;21.448;2022-10-16T15:11:32;3.28;;;2.42;;
45356;SDS011;31092;51.924;21.448;2022-10-16T15:13:59;4.57;;;3.03;;
45356;SDS011;31092;51.924;21.448;2022-10-16T15:16:24;4.07;;;2.70;;
45356;SDS011;31092;51.924;21.448;2022-10-16T15:18:50;4.03;;;2.63;;
45356;SDS011;31092;51.924;21.448;2022-10-16T15:21:28;4.05;;;2.58;;
45356;SDS011;31092;51.924;21.448;2022-10-16T15:23:55;4.45;;;2.47;;
45356;SDS011;31092;51.924;21.448;2022-10-16T15:26:22;6.30;;;2.92;;
45356;SDS011;31092;51.924;21.448;2022-10-16T15:28:52;3.22;;;2.50;;
45356;SDS011;31092;51.924;21.448;2022-10-16T15:31:18;3.67;;;2.95;;
45356;SDS011;31092;51.924;21.448;2022-10-16T15:33:45;3.60;;;2.60;;
45356;SDS011;31092;51.924;21.448;2022-10-16T15:36:16;3.90;;;3.05;;
45356;SDS011;31092;51.924;21.448;2022-10-16T15:38:42;3.42;;;2.80;;
45356;SDS011;31092;51.924;21.448;2022-10-16T15:41:07;3.17;;;2.53;;
45356;SDS011;31092;51.924;21.448;2022-10-16T15:43:33;8.45;;;3.05;;
45356;SDS011;31092;51.924;21.448;2022-10-16T15:46:02;4.07;;;2.97;;
45356;SDS011;31092;51.924;21.448;2022-10-16T15:48:31;3.35;;;2.72;;
45356;SDS011;31092;51.924;21.448;2022-10-16T15:50:57;3.15;;;2.80;;
45356;SDS011;31092;51.924;21.448;2022-10-16T15:53:23;4.68;;;2.95;;
45356;SDS011;31092;51.924;21.448;2022-10-16T15:55:49;3.58;;;2.88;;
45356;SDS011;31092;51.924;21.448;2022-10-16T15:58:14;3.58;;;2.67;;
45356;SDS011;31092;51.924;21.448;2022-10-16T16:00:40;6.18;;;3.72;;
45356;SDS011;31092;51.924;21.448;2022-10-16T16:03:06;4.20;;;3.80;;
45356;SDS011;31092;51.924;21.448;2022-10-16T16:05:38;4.07;;;2.55;;
45356;SDS011;31092;51.924;21.448;2022-10-16T16:08:13;7.97;;;3.35;;
45356;SDS011;31092;51.924;21.448;2022-10-16T16:10:38;5.13;;;3.67;;
45356;SDS011;31092;51.924;21.448;2022-10-16T16:13:09;6.57;;;3.60;;
45356;SDS011;31092;51.924;21.448;2022-10-16T16:26:38;5.18;;;3.50;;
45356;SDS011;31092;51.924;21.448;2022-10-16T16:29:56;3.67;;;3.10;;
45356;SDS011;31092;51.924;21.448;2022-10-16T16:59:02;5.75;;;4.03;;
45356;SDS011;31092;51.924;21.448;2022-10-16T17:02:08;5.80;;;3.70;;
45356;SDS011;31092;51.924;21.448;2022-10-16T17:05:18;5.63;;;3.33;;
45356;SDS011;31092;51.924;21.448;2022-10-16T17:07:44;6.70;;;3.60;;
45356;SDS011;31092;51.924;21.448;2022-10-16T17:10:11;6.22;;;3.60;;
45356;SDS011;31092;51.924;21.448;2022-10-16T17:12:42;4.10;;;3.30;;
45356;SDS011;31092;51.924;21.448;2022-10-16T17:15:09;4.32;;;3.80;;
45356;SDS011;31092;51.924;21.448;2022-10-16T17:17:35;4.47;;;3.30;;
45356;SDS011;31092;51.924;21.448;2022-10-16T17:20:01;4.20;;;2.95;;
45356;SDS011;31092;51.924;21.448;2022-10-16T17:22:27;7.53;;;3.50;;
45356;SDS011;31092;51.924;21.448;2022-10-16T17:25:01;5.22;;;3.42;;
45356;SDS011;31092;51.924;21.448;2022-10-16T17:27:48;5.95;;;3.58;;
45356;SDS011;31092;51.924;21.448;2022-10-16T17:31:02;4.50;;;3.22;;
45356;SDS011;31092;51.924;21.448;2022-10-16T17:36:45;5.68;;;3.75;;
45356;SDS011;31092;51.924;21.448;2022-10-16T17:39:15;4.72;;;3.53;;
45356;SDS011;31092;51.924;21.448;2022-10-16T17:41:46;4.60;;;3.28;;
45356;SDS011;31092;51.924;21.448;2022-10-16T17:50:26;9.70;;;4.22;;
45356;SDS011;31092;51.924;21.448;2022-10-16T17:52:52;4.15;;;2.95;;
45356;SDS011;31092;51.924;21.448;2022-10-16T17:55:54;5.25;;;3.47;;
45356;SDS011;31092;51.924;21.448;2022-10-16T17:58:29;7.18;;;3.80;;
45356;SDS011;31092;51.924;21.448;2022-10-16T18:00:58;5.95;;;3.45;;
45356;SDS011;31092;51.924;21.448;2022-10-16T18:06:15;7.35;;;3.80;;
45356;SDS011;31092;51.924;21.448;2022-10-16T18:08:58;6.43;;;3.92;;
45356;SDS011;31092;51.924;21.448;2022-10-16T18:11:24;3.60;;;2.90;;
45356;SDS011;31092;51.924;21.448;2022-10-16T18:14:15;3.72;;;2.53;;
45356;SDS011;31092;51.924;21.448;2022-10-16T18:17:07;5.38;;;3.22;;